Time;durP1;ratioP1;P1;durP2;ratioP2;P2;SDS_P1;SDS_P2;PMS_P1;PMS_P2;Temp;Humidity;BMP_temperature;BMP_pressure;BME280_temperature;BME280_humidity;BME280_pressure;Samples;Min_cycle;Max_cycle;Signal;HPM_P1;HPM_P2
2021/01/23 00:02:22;;;;;;;11.80;10.70;;;;;;;;;;5061988;28;20252;-54
2021/01/23 00:04:47;;;;;;;10.80;9.80;;;;;;;;;;5072526;28;20172;-55
2021/01/23 00:07:12;;;;;;;10.80;9.80;;;;;;;;;;5064887;28;20176;-54
2021/01/23 00:09:37;;;;;;;12.10;10.90;;;;;;;;;;5073123;28;20174;-54
2021/01/23 00:12:03;;;;;;;11.37;10.37;;;;;;;;;;5064869;28;20228;-54
2021/01/23 00:14:28;;;;;;;11.23;10.07;;;;;;;;;;5063873;28;20719;-54
2021/01/23 00:16:53;;;;;;;10.60;9.63;;;;;;;;;;5066081;28;20635;-55
2021/01/23 00:19:19;;;;;;;11.57;10.40;;;;;;;;;;5068575;28;20325;-55
2021/01/23 00:21:44;;;;;;;11.73;10.70;;;;;;;;;;5067098;28;20231;-54
2021/01/23 00:24:09;;;;;;;11.40;10.20;;;;;;;;;;5072231;28;20187;-54
2021/01/23 00:26:34;;;;;;;11.52;10.35;;;;;;;;;;5060872;28;20647;-54
2021/01/23 00:28:59;;;;;;;11.02;10.02;;;;;;;;;;5069634;28;20669;-55
2021/01/23 00:31:25;;;;;;;10.80;9.90;;;;;;;;;;5068414;28;20235;-54
2021/01/23 00:33:50;;;;;;;10.85;9.85;;;;;;;;;;5059308;28;20180;-54
2021/01/23 00:36:15;;;;;;;12.30;11.10;;;;;;;;;;5067395;28;20183;-55
2021/01/23 00:38:42;;;;;;;10.70;9.80;;;;;;;;;;5064162;28;20283;-55
2021/01/23 00:41:07;;;;;;;10.93;10.03;;;;;;;;;;5064515;28;20227;-54
2021/01/23 00:43:32;;;;;;;12.07;10.88;;;;;;;;;;5064063;28;20608;-54
2021/01/23 00:45:57;;;;;;;12.07;10.80;;;;;;;;;;5059743;28;20179;-55
2021/01/23 00:48:23;;;;;;;11.40;10.20;;;;;;;;;;5069420;28;20176;-55
2021/01/23 00:50:48;;;;;;;10.57;9.60;;;;;;;;;;5071526;28;20197;-54
2021/01/23 00:53:13;;;;;;;10.70;9.80;;;;;;;;;;5069330;28;20186;-54
2021/01/23 00:55:38;;;;;;;10.57;9.47;;;;;;;;;;5063330;28;20239;-54
2021/01/23 00:58:03;;;;;;;10.40;9.50;;;;;;;;;;5063887;28;20655;-54
2021/01/23 01:00:29;;;;;;;9.47;8.60;;;;;;;;;;5069078;28;20206;-54
2021/01/23 01:02:54;;;;;;;11.60;10.50;;;;;;;;;;5068546;28;20257;-54
2021/01/23 01:05:19;;;;;;;10.10;9.20;;;;;;;;;;5064019;28;20592;-54
2021/01/23 01:07:44;;;;;;;10.65;9.65;;;;;;;;;;5061233;28;20191;-55
2021/01/23 01:10:10;;;;;;;10.88;9.88;;;;;;;;;;5066899;28;20176;-54
2021/01/23 01:12:35;;;;;;;10.33;9.33;;;;;;;;;;5061935;28;20665;-54
2021/01/23 01:15:01;;;;;;;11.53;10.13;;;;;;;;;;5070781;28;20266;-54
2021/01/23 01:17:26;;;;;;;10.37;9.33;;;;;;;;;;5070755;28;20176;-54
2021/01/23 01:19:51;;;;;;;9.20;8.40;;;;;;;;;;5071128;28;20175;-54
2021/01/23 01:22:16;;;;;;;9.63;8.73;;;;;;;;;;5064646;28;20164;-54
2021/01/23 01:24:41;;;;;;;9.30;8.40;;;;;;;;;;5060916;28;20230;-55
2021/01/23 01:27:06;;;;;;;9.98;8.98;;;;;;;;;;5071317;28;20189;-54
2021/01/23 01:29:32;;;;;;;9.30;8.50;;;;;;;;;;5071029;28;20206;-54
2021/01/23 01:31:57;;;;;;;9.02;8.13;;;;;;;;;;5064150;28;20525;-54
2021/01/23 01:34:22;;;;;;;8.88;7.97;;;;;;;;;;5065468;28;20168;-54
2021/01/23 01:36:47;;;;;;;8.63;7.82;;;;;;;;;;5069214;28;20218;-54
2021/01/23 01:39:12;;;;;;;9.43;8.52;;;;;;;;;;5062852;28;20171;-54
2021/01/23 01:41:38;;;;;;;9.63;8.73;;;;;;;;;;5062509;28;20191;-55
2021/01/23 01:44:04;;;;;;;8.60;7.67;;;;;;;;;;5059679;28;20184;-54
2021/01/23 01:46:29;;;;;;;8.70;7.90;;;;;;;;;;5064461;28;20166;-54
2021/01/23 01:48:56;;;;;;;8.83;8.13;;;;;;;;;;5062662;28;20610;-54
2021/01/23 01:51:21;;;;;;;7.63;6.93;;;;;;;;;;5067481;28;20227;-54
2021/01/23 01:53:46;;;;;;;8.43;7.63;;;;;;;;;;5066128;28;20596;-55
2021/01/23 01:56:11;;;;;;;8.30;7.55;;;;;;;;;;5069821;28;20743;-54
2021/01/23 01:58:36;;;;;;;10.40;9.40;;;;;;;;;;5066013;28;20187;-55
2021/01/23 02:01:02;;;;;;;10.00;9.00;;;;;;;;;;5067371;28;20495;-55
2021/01/23 02:03:46;;;;;;;8.07;7.37;;;;;;;;;;5064055;28;20587;-54
2021/01/23 02:06:28;;;;;;;8.30;7.50;;;;;;;;;;5068918;28;20172;-54
2021/01/23 02:09:23;;;;;;;8.57;7.77;;;;;;;;;;5068415;28;20604;-54
2021/01/23 02:12:10;;;;;;;8.50;7.27;;;;;;;;;;5039178;28;21134;-54
2021/01/23 02:14:51;;;;;;;8.70;7.80;;;;;;;;;;5068744;28;20591;-54
2021/01/23 02:17:17;;;;;;;8.53;7.83;;;;;;;;;;5065717;28;21167;-54
2021/01/23 02:19:53;;;;;;;7.70;7.00;;;;;;;;;;5062318;28;20607;-54
2021/01/23 02:22:48;;;;;;;8.00;7.27;;;;;;;;;;5062997;28;20261;-54
2021/01/23 02:25:14;;;;;;;7.93;7.33;;;;;;;;;;5043801;28;20700;-54
2021/01/23 02:27:45;;;;;;;7.80;7.10;;;;;;;;;;5060830;28;20598;-54
2021/01/23 02:30:14;;;;;;;8.60;7.80;;;;;;;;;;5066697;28;20667;-54
2021/01/23 02:32:39;;;;;;;8.93;8.13;;;;;;;;;;5063892;28;20605;-54
2021/01/23 02:35:07;;;;;;;8.80;8.10;;;;;;;;;;5065645;28;20693;-54
2021/01/23 02:37:33;;;;;;;8.03;7.30;;;;;;;;;;5060922;28;20176;-54
2021/01/23 02:39:58;;;;;;;8.43;7.63;;;;;;;;;;5070039;28;20602;-53
2021/01/23 02:42:23;;;;;;;8.93;8.13;;;;;;;;;;5067154;28;20530;-54
2021/01/23 02:44:48;;;;;;;8.95;8.05;;;;;;;;;;5055236;28;20197;-54
2021/01/23 02:47:13;;;;;;;8.15;7.45;;;;;;;;;;5061768;28;20646;-54
2021/01/23 02:49:39;;;;;;;8.50;7.80;;;;;;;;;;5063675;28;20612;-54
2021/01/23 02:52:09;;;;;;;7.77;7.07;;;;;;;;;;5061257;28;20684;-54
2021/01/23 02:54:39;;;;;;;7.77;6.97;;;;;;;;;;5057393;28;20748;-54
2021/01/23 02:57:05;;;;;;;7.33;6.67;;;;;;;;;;5070101;28;20610;-54
2021/01/23 02:59:32;;;;;;;7.43;6.83;;;;;;;;;;5061528;28;20637;-54
2021/01/23 03:01:58;;;;;;;8.63;7.70;;;;;;;;;;5069318;28;20661;-54
2021/01/23 03:04:23;;;;;;;7.57;6.97;;;;;;;;;;5071372;28;20595;-55
2021/01/23 03:06:48;;;;;;;7.90;7.10;;;;;;;;;;5073472;28;20606;-54
2021/01/23 03:09:17;;;;;;;7.27;6.57;;;;;;;;;;5073804;28;20261;-54
2021/01/23 03:11:43;;;;;;;8.57;7.70;;;;;;;;;;5069786;28;20179;-54
2021/01/23 03:14:08;;;;;;;8.63;7.80;;;;;;;;;;5071307;28;20986;-54
2021/01/23 03:16:33;;;;;;;7.85;7.15;;;;;;;;;;5073743;28;20226;-54
2021/01/23 03:18:58;;;;;;;9.30;8.50;;;;;;;;;;5065418;28;20183;-54
2021/01/23 03:21:23;;;;;;;8.43;7.63;;;;;;;;;;5071058;28;20661;-55
2021/01/23 03:23:48;;;;;;;8.57;7.78;;;;;;;;;;5064032;28;20174;-54
2021/01/23 03:26:13;;;;;;;8.95;8.02;;;;;;;;;;5069696;28;20246;-54
2021/01/23 03:28:38;;;;;;;8.98;8.07;;;;;;;;;;5067924;28;20169;-54
2021/01/23 03:31:04;;;;;;;8.35;7.47;;;;;;;;;;5073301;28;20202;-53
2021/01/23 03:33:29;;;;;;;8.27;7.50;;;;;;;;;;5071144;28;20524;-54
2021/01/23 03:35:54;;;;;;;8.30;7.50;;;;;;;;;;5072680;28;20214;-53
2021/01/23 03:38:19;;;;;;;7.88;7.03;;;;;;;;;;5064033;28;20179;-55
2021/01/23 03:40:44;;;;;;;7.80;7.03;;;;;;;;;;5073642;28;20205;-54
2021/01/23 03:43:09;;;;;;;8.13;7.43;;;;;;;;;;5068834;28;20601;-54
2021/01/23 03:45:35;;;;;;;8.23;7.20;;;;;;;;;;5070059;28;20194;-54
2021/01/23 03:48:00;;;;;;;7.95;7.25;;;;;;;;;;5061947;28;20179;-55
2021/01/23 03:50:25;;;;;;;7.60;7.00;;;;;;;;;;5070058;28;20168;-54
2021/01/23 03:52:50;;;;;;;7.70;6.97;;;;;;;;;;5060179;28;20647;-54
2021/01/23 03:55:15;;;;;;;7.45;6.72;;;;;;;;;;5072261;28;20171;-54
2021/01/23 03:57:40;;;;;;;7.88;7.15;;;;;;;;;;5072778;28;20213;-54
2021/01/23 04:00:06;;;;;;;7.82;7.10;;;;;;;;;;5071266;28;20641;-54
2021/01/23 04:02:31;;;;;;;9.27;7.90;;;;;;;;;;5072024;28;20907;-55
2021/01/23 04:04:57;;;;;;;8.60;7.90;;;;;;;;;;5063972;28;20973;-54
2021/01/23 04:07:22;;;;;;;8.43;7.72;;;;;;;;;;5066242;28;20701;-54
2021/01/23 04:09:47;;;;;;;7.13;6.47;;;;;;;;;;5065028;28;20175;-55
2021/01/23 04:12:12;;;;;;;7.40;6.70;;;;;;;;;;5070448;28;20183;-55
2021/01/23 04:14:37;;;;;;;10.60;9.00;;;;;;;;;;5061046;28;20172;-54
2021/01/23 04:17:02;;;;;;;13.63;10.00;;;;;;;;;;5070933;28;20183;-55
2021/01/23 04:19:27;;;;;;;9.53;8.73;;;;;;;;;;5066522;28;20204;-55
2021/01/23 04:21:52;;;;;;;9.77;8.30;;;;;;;;;;5063169;28;20206;-55
2021/01/23 04:24:18;;;;;;;10.88;9.30;;;;;;;;;;5058209;28;20234;-55
2021/01/23 04:26:43;;;;;;;9.02;8.23;;;;;;;;;;5056821;28;20660;-55
2021/01/23 04:29:08;;;;;;;9.00;8.20;;;;;;;;;;5059766;28;20167;-55
2021/01/23 04:31:34;;;;;;;9.80;8.83;;;;;;;;;;5068796;28;20183;-56
2021/01/23 04:33:59;;;;;;;11.67;10.57;;;;;;;;;;5067297;28;20182;-56
2021/01/23 04:36:24;;;;;;;12.00;10.40;;;;;;;;;;5060422;28;20597;-56
2021/01/23 04:38:50;;;;;;;11.82;10.30;;;;;;;;;;5063156;28;20238;-55
2021/01/23 04:41:15;;;;;;;11.03;9.93;;;;;;;;;;5070254;28;20253;-56
2021/01/23 04:43:40;;;;;;;12.98;10.00;;;;;;;;;;5060032;28;20175;-56
2021/01/23 04:46:05;;;;;;;13.57;12.18;;;;;;;;;;5067080;28;20221;-56
2021/01/23 04:48:31;;;;;;;11.40;10.20;;;;;;;;;;5065998;28;20174;-57
2021/01/23 04:50:56;;;;;;;12.03;9.90;;;;;;;;;;5064822;28;20267;-55
2021/01/23 04:53:21;;;;;;;12.37;10.07;;;;;;;;;;5068622;28;20251;-55
2021/01/23 04:55:46;;;;;;;9.93;8.80;;;;;;;;;;5063043;28;20172;-56
2021/01/23 04:58:11;;;;;;;10.90;9.50;;;;;;;;;;5067488;28;20183;-56
2021/01/23 05:00:36;;;;;;;10.48;9.38;;;;;;;;;;5071831;28;20245;-56
2021/01/23 05:03:05;;;;;;;12.25;10.95;;;;;;;;;;5067683;28;20175;-57
2021/01/23 05:05:31;;;;;;;15.27;11.57;;;;;;;;;;5059844;28;20171;-56
2021/01/23 05:08:06;;;;;;;14.20;12.80;;;;;;;;;;5067625;28;24406;-56
2021/01/23 05:10:31;;;;;;;14.90;13.40;;;;;;;;;;5066694;28;25048;-56
2021/01/23 05:12:58;;;;;;;13.73;11.97;;;;;;;;;;5070879;28;20281;-56
2021/01/23 05:15:25;;;;;;;11.40;10.30;;;;;;;;;;5061105;28;20168;-55
2021/01/23 05:17:50;;;;;;;11.43;10.33;;;;;;;;;;5071060;28;20623;-56
2021/01/23 05:20:33;;;;;;;11.70;10.17;;;;;;;;;;5067121;28;20641;-56
2021/01/23 05:22:59;;;;;;;13.50;11.00;;;;;;;;;;5070163;28;20167;-55
2021/01/23 05:25:31;;;;;;;12.20;10.97;;;;;;;;;;5057088;28;20657;-56
2021/01/23 05:27:57;;;;;;;11.73;10.63;;;;;;;;;;5065260;28;21009;-56
2021/01/23 05:30:22;;;;;;;12.00;10.80;;;;;;;;;;5058683;28;20701;-56
2021/01/23 05:33:08;;;;;;;15.23;13.73;;;;;;;;;;5069965;28;25167;-56
2021/01/23 05:35:33;;;;;;;16.30;14.80;;;;;;;;;;5065093;28;24451;-55
2021/01/23 05:37:58;;;;;;;14.38;12.98;;;;;;;;;;5065024;28;24979;-55
2021/01/23 05:40:30;;;;;;;13.10;11.77;;;;;;;;;;5062701;28;20214;-56
2021/01/23 05:42:55;;;;;;;11.33;10.33;;;;;;;;;;5066185;28;20179;-55
2021/01/23 05:45:20;;;;;;;10.80;9.70;;;;;;;;;;5064557;28;20605;-55
2021/01/23 05:47:46;;;;;;;12.07;10.87;;;;;;;;;;5060779;28;20264;-56
2021/01/23 05:50:11;;;;;;;10.45;9.35;;;;;;;;;;5065934;28;20182;-56
2021/01/23 05:52:36;;;;;;;12.53;11.43;;;;;;;;;;5059803;28;24474;-55
2021/01/23 05:55:02;;;;;;;10.03;9.03;;;;;;;;;;5068771;28;20433;-55
2021/01/23 05:57:28;;;;;;;12.33;9.57;;;;;;;;;;5064528;28;20550;-55
2021/01/23 05:59:54;;;;;;;9.30;8.50;;;;;;;;;;5065920;28;20610;-55
2021/01/23 06:02:20;;;;;;;10.07;9.17;;;;;;;;;;5058655;28;20935;-55
2021/01/23 06:04:47;;;;;;;10.00;9.10;;;;;;;;;;5060101;28;20659;-55
2021/01/23 06:07:32;;;;;;;9.77;8.87;;;;;;;;;;5067807;28;20609;-55
2021/01/23 06:09:57;;;;;;;11.17;10.10;;;;;;;;;;5062615;28;20640;-55
2021/01/23 06:12:32;;;;;;;9.10;8.20;;;;;;;;;;5066593;28;20625;-55
2021/01/23 06:14:57;;;;;;;8.90;8.00;;;;;;;;;;5057316;28;20253;-56
2021/01/23 06:17:41;;;;;;;10.23;9.40;;;;;;;;;;5063974;28;24526;-56
2021/01/23 06:20:06;;;;;;;9.20;8.50;;;;;;;;;;5063918;28;20630;-56
2021/01/23 06:22:51;;;;;;;9.10;8.40;;;;;;;;;;5069836;28;20612;-55
2021/01/23 06:25:16;;;;;;;9.87;8.87;;;;;;;;;;5060416;28;20691;-56
2021/01/23 06:27:48;;;;;;;10.57;9.67;;;;;;;;;;5065109;28;24417;-55
2021/01/23 06:30:27;;;;;;;9.23;8.40;;;;;;;;;;5063843;28;20541;-55
2021/01/23 06:32:52;;;;;;;6.93;6.30;;;;;;;;;;5060402;28;20590;-55
2021/01/23 06:35:17;;;;;;;8.63;7.73;;;;;;;;;;5061464;28;21182;-55
2021/01/23 06:37:42;;;;;;;7.87;7.13;;;;;;;;;;5068939;28;20176;-56
2021/01/23 06:40:10;;;;;;;7.70;5.95;;;;;;;;;;5067485;28;20749;-55
2021/01/23 06:42:39;;;;;;;7.60;6.70;;;;;;;;;;5069920;28;20170;-55
2021/01/23 06:45:14;;;;;;;8.87;7.83;;;;;;;;;;5063683;28;20703;-56
2021/01/23 06:47:43;;;;;;;8.00;7.30;;;;;;;;;;5067430;28;20601;-55
2021/01/23 06:50:09;;;;;;;8.80;6.70;;;;;;;;;;5063557;28;20607;-55
2021/01/23 06:52:44;;;;;;;9.60;8.60;;;;;;;;;;5068398;28;21146;-55
2021/01/23 06:55:09;;;;;;;6.50;5.97;;;;;;;;;;5061754;28;20594;-56
2021/01/23 06:57:41;;;;;;;8.90;8.00;;;;;;;;;;5066738;28;20702;-56
2021/01/23 07:00:07;;;;;;;9.73;8.10;;;;;;;;;;5068321;28;20630;-56
2021/01/23 07:02:32;;;;;;;8.57;7.67;;;;;;;;;;5070498;28;20728;-56
2021/01/23 07:04:57;;;;;;;7.93;6.37;;;;;;;;;;5066086;28;20540;-56
2021/01/23 07:07:22;;;;;;;6.30;5.75;;;;;;;;;;5059605;28;20293;-56
2021/01/23 07:09:49;;;;;;;6.90;6.30;;;;;;;;;;5067836;28;20173;-56
2021/01/23 07:12:34;;;;;;;6.90;6.30;;;;;;;;;;5062610;28;20179;-56
2021/01/23 07:15:00;;;;;;;6.90;6.30;;;;;;;;;;5061436;28;20603;-55
2021/01/23 07:17:25;;;;;;;7.97;7.37;;;;;;;;;;5066410;28;20650;-55
2021/01/23 07:19:51;;;;;;;7.93;7.17;;;;;;;;;;5061078;28;20184;-55
2021/01/23 07:22:16;;;;;;;6.68;6.05;;;;;;;;;;5069147;28;20318;-55
2021/01/23 07:24:41;;;;;;;6.53;5.97;;;;;;;;;;5066231;28;20222;-56
2021/01/23 07:27:06;;;;;;;10.05;8.60;;;;;;;;;;5061282;28;20194;-55
2021/01/23 07:29:32;;;;;;;8.80;8.00;;;;;;;;;;5068125;28;20595;-56
2021/01/23 07:31:57;;;;;;;7.63;6.97;;;;;;;;;;5061483;28;20259;-55
2021/01/23 07:34:22;;;;;;;8.70;7.80;;;;;;;;;;5062117;28;20181;-56
2021/01/23 07:36:47;;;;;;;6.50;5.90;;;;;;;;;;5057973;28;20173;-55
2021/01/23 07:39:16;;;;;;;6.97;6.13;;;;;;;;;;5066804;28;20544;-56
2021/01/23 07:41:46;;;;;;;6.80;6.10;;;;;;;;;;5057849;28;20625;-55
2021/01/23 07:44:12;;;;;;;7.93;7.13;;;;;;;;;;5066521;28;20592;-55
2021/01/23 07:46:39;;;;;;;7.30;6.60;;;;;;;;;;5062484;28;20944;-55
2021/01/23 07:49:06;;;;;;;5.50;5.10;;;;;;;;;;5072597;28;20173;-56
2021/01/23 07:51:31;;;;;;;7.17;6.47;;;;;;;;;;5059710;28;20695;-55
2021/01/23 07:54:03;;;;;;;5.00;4.60;;;;;;;;;;5058696;28;20699;-55
2021/01/23 07:56:28;;;;;;;8.67;6.90;;;;;;;;;;5064741;28;20205;-55
2021/01/23 07:58:53;;;;;;;9.57;6.93;;;;;;;;;;5071460;28;21165;-55
2021/01/23 08:01:18;;;;;;;15.73;6.90;;;;;;;;;;5063061;28;20200;-55
2021/01/23 08:03:43;;;;;;;5.30;4.78;;;;;;;;;;5065340;28;20180;-55
2021/01/23 08:06:18;;;;;;;7.75;6.95;;;;;;;;;;5063909;28;20528;-56
2021/01/23 08:08:43;;;;;;;5.87;4.63;;;;;;;;;;5071123;28;20817;-56
2021/01/23 08:11:28;;;;;;;6.85;5.45;;;;;;;;;;5066968;28;21043;-56
2021/01/23 08:14:05;;;;;;;5.67;5.17;;;;;;;;;;5062867;28;20179;-57
2021/01/23 08:16:30;;;;;;;12.23;6.50;;;;;;;;;;5060031;28;20594;-56
2021/01/23 08:19:05;;;;;;;7.05;6.35;;;;;;;;;;5064280;28;20596;-57
2021/01/23 08:21:30;;;;;;;6.47;5.87;;;;;;;;;;5064393;28;20216;-57
2021/01/23 08:23:55;;;;;;;8.93;6.30;;;;;;;;;;5070982;28;21166;-56
2021/01/23 08:26:35;;;;;;;6.00;5.33;;;;;;;;;;5067136;28;20221;-57
2021/01/23 08:29:00;;;;;;;5.90;5.37;;;;;;;;;;5068985;28;20224;-57
2021/01/23 08:31:25;;;;;;;7.43;5.70;;;;;;;;;;5070014;28;20999;-57
2021/01/23 08:33:54;;;;;;;8.67;7.03;;;;;;;;;;5065565;28;20180;-57
2021/01/23 08:36:20;;;;;;;8.93;6.73;;;;;;;;;;5069334;28;20188;-57
2021/01/23 08:38:46;;;;;;;11.00;7.70;;;;;;;;;;5071903;28;20595;-57
2021/01/23 08:41:11;;;;;;;8.53;6.90;;;;;;;;;;5069898;28;20755;-58
2021/01/23 08:43:36;;;;;;;7.95;7.13;;;;;;;;;;5068530;28;20264;-57
2021/01/23 08:46:01;;;;;;;8.10;6.95;;;;;;;;;;5068264;28;20605;-57
2021/01/23 08:48:26;;;;;;;10.03;8.47;;;;;;;;;;5070060;28;20179;-57
2021/01/23 08:50:52;;;;;;;8.60;7.80;;;;;;;;;;5063890;28;20223;-58
2021/01/23 08:53:17;;;;;;;8.70;7.80;;;;;;;;;;5059852;28;20189;-57
2021/01/23 08:59:22;;;;;;;10.17;8.80;;;;;;;;;;5051177;28;20210;-56
2021/01/23 09:04:50;;;;;;;11.07;9.20;;;;;;;;;;5067328;28;20647;-53
2021/01/23 09:07:15;;;;;;;11.30;10.07;;;;;;;;;;5063215;28;21012;-53
2021/01/23 09:09:40;;;;;;;9.70;8.40;;;;;;;;;;5062331;28;20169;-56
2021/01/23 09:12:05;;;;;;;12.00;10.05;;;;;;;;;;5069212;28;20550;-56
2021/01/23 09:14:40;;;;;;;14.10;10.70;;;;;;;;;;5066520;28;20528;-56
2021/01/23 09:20:08;;;;;;;9.50;8.27;;;;;;;;;;5065871;28;21220;-56
2021/01/23 09:22:33;;;;;;;11.87;9.60;;;;;;;;;;5052107;28;20602;-53
2021/01/23 09:28:01;;;;;;;16.07;10.60;;;;;;;;;;5068378;28;20185;-53
2021/01/23 09:30:26;;;;;;;11.25;7.90;;;;;;;;;;5068417;28;20598;-55
2021/01/23 09:32:51;;;;;;;12.00;9.77;;;;;;;;;;5069932;28;20178;-55
2021/01/23 09:35:16;;;;;;;11.45;9.70;;;;;;;;;;5067906;28;20176;-53
2021/01/23 09:37:41;;;;;;;16.70;11.20;;;;;;;;;;5063356;28;20286;-53
2021/01/23 09:43:09;;;;;;;15.13;10.97;;;;;;;;;;5056968;28;20171;-53
2021/01/23 09:45:34;;;;;;;12.68;10.13;;;;;;;;;;5056674;28;20592;-52
2021/01/23 09:48:00;;;;;;;11.00;9.63;;;;;;;;;;5061976;28;20198;-53
2021/01/23 09:50:25;;;;;;;13.10;9.97;;;;;;;;;;5063968;28;20176;-53
2021/01/23 09:52:50;;;;;;;12.40;9.37;;;;;;;;;;5066803;28;20320;-51
2021/01/23 09:55:15;;;;;;;12.60;9.60;;;;;;;;;;5065890;28;20201;-52
2021/01/23 09:57:41;;;;;;;12.00;9.63;;;;;;;;;;5064836;28;20186;-52
2021/01/23 10:00:06;;;;;;;8.83;7.93;;;;;;;;;;5066613;28;20323;-52
2021/01/23 10:02:34;;;;;;;9.77;8.80;;;;;;;;;;5068602;28;20178;-53
2021/01/23 10:05:00;;;;;;;8.83;7.83;;;;;;;;;;5067878;28;20592;-52
2021/01/23 10:07:25;;;;;;;10.17;8.77;;;;;;;;;;5060320;28;20595;-53
2021/01/23 10:09:50;;;;;;;9.87;8.27;;;;;;;;;;5067444;28;20608;-52
2021/01/23 10:12:15;;;;;;;8.52;7.60;;;;;;;;;;5070473;28;20655;-52
2021/01/23 10:14:40;;;;;;;8.38;7.47;;;;;;;;;;5069409;28;20228;-52
2021/01/23 10:17:05;;;;;;;9.43;8.43;;;;;;;;;;5060277;28;20560;-52
2021/01/23 10:19:31;;;;;;;9.33;8.10;;;;;;;;;;5066911;28;20181;-53
2021/01/23 10:22:00;;;;;;;9.23;8.35;;;;;;;;;;5060483;28;20334;-52
2021/01/23 10:24:25;;;;;;;9.00;7.67;;;;;;;;;;5060470;28;20857;-53
2021/01/23 10:26:50;;;;;;;9.63;8.68;;;;;;;;;;5066134;28;21097;-52
2021/01/23 10:29:15;;;;;;;9.13;8.20;;;;;;;;;;5061644;28;20629;-54
2021/01/23 10:31:40;;;;;;;9.80;8.90;;;;;;;;;;5061894;28;20260;-52
2021/01/23 10:34:06;;;;;;;9.07;7.55;;;;;;;;;;5061504;28;20259;-53
2021/01/23 10:36:31;;;;;;;9.10;8.20;;;;;;;;;;5064353;28;20227;-52
2021/01/23 10:38:56;;;;;;;10.23;8.83;;;;;;;;;;5065598;28;20179;-52
2021/01/23 10:41:22;;;;;;;7.75;6.80;;;;;;;;;;5061506;28;20202;-53
2021/01/23 10:43:47;;;;;;;6.93;6.33;;;;;;;;;;5061474;28;20244;-53
2021/01/23 10:46:12;;;;;;;9.27;7.80;;;;;;;;;;5066970;28;20186;-53
2021/01/23 10:48:37;;;;;;;7.97;6.90;;;;;;;;;;5057175;28;20165;-53
2021/01/23 10:51:02;;;;;;;7.53;6.83;;;;;;;;;;5064759;28;20840;-53
2021/01/23 10:53:27;;;;;;;8.70;7.27;;;;;;;;;;5059273;28;20281;-53
2021/01/23 10:55:53;;;;;;;6.03;5.53;;;;;;;;;;5059753;28;20245;-52
2021/01/23 10:58:18;;;;;;;7.28;6.68;;;;;;;;;;5063885;28;20194;-51
2021/01/23 11:00:43;;;;;;;6.18;5.68;;;;;;;;;;5069550;28;20194;-52
2021/01/23 11:03:08;;;;;;;5.63;5.13;;;;;;;;;;5061309;28;20192;-52
2021/01/23 11:05:33;;;;;;;7.63;6.93;;;;;;;;;;5059138;28;20182;-52
2021/01/23 11:07:58;;;;;;;6.10;5.60;;;;;;;;;;5063576;28;20257;-53
2021/01/23 11:10:24;;;;;;;6.10;5.53;;;;;;;;;;5066468;28;20273;-53
2021/01/23 11:12:49;;;;;;;7.00;5.60;;;;;;;;;;5062770;28;20178;-53
2021/01/23 11:15:14;;;;;;;7.00;4.83;;;;;;;;;;5061100;28;20183;-52
2021/01/23 11:17:39;;;;;;;5.47;4.97;;;;;;;;;;5057435;28;20198;-52
2021/01/23 11:20:05;;;;;;;5.57;5.07;;;;;;;;;;5062868;28;20178;-52
2021/01/23 11:22:30;;;;;;;6.00;4.63;;;;;;;;;;5069399;28;20212;-51
2021/01/23 11:24:55;;;;;;;5.18;4.78;;;;;;;;;;5065480;28;20750;-52
2021/01/23 11:27:21;;;;;;;4.05;3.75;;;;;;;;;;5068393;28;20193;-52
2021/01/23 11:29:46;;;;;;;4.00;3.80;;;;;;;;;;5072052;28;20176;-51
2021/01/23 11:32:11;;;;;;;3.83;3.63;;;;;;;;;;5071694;28;20190;-52
2021/01/23 11:34:36;;;;;;;6.40;5.50;;;;;;;;;;5068397;28;20189;-52
2021/01/23 11:37:01;;;;;;;4.20;3.90;;;;;;;;;;5070122;28;20223;-50
2021/01/23 11:39:27;;;;;;;4.45;4.15;;;;;;;;;;5071937;28;20177;-50
2021/01/23 11:41:52;;;;;;;4.23;3.83;;;;;;;;;;5072819;28;20216;-51
2021/01/23 11:44:17;;;;;;;4.35;4.05;;;;;;;;;;5072869;28;20184;-52
2021/01/23 11:46:42;;;;;;;4.10;3.80;;;;;;;;;;5069253;28;20182;-51
2021/01/23 11:49:07;;;;;;;5.35;4.70;;;;;;;;;;5062984;28;20259;-52
2021/01/23 11:51:33;;;;;;;4.50;4.20;;;;;;;;;;5068870;28;20543;-52
2021/01/23 11:53:58;;;;;;;4.63;4.23;;;;;;;;;;5065169;28;20261;-51
2021/01/23 11:56:23;;;;;;;4.70;4.40;;;;;;;;;;5057037;28;20173;-52
2021/01/23 11:58:50;;;;;;;5.20;4.80;;;;;;;;;;5055207;28;20183;-51
2021/01/23 12:01:15;;;;;;;5.50;5.10;;;;;;;;;;5070893;28;20751;-52
2021/01/23 12:03:40;;;;;;;5.97;5.38;;;;;;;;;;5066710;28;21208;-51
2021/01/23 12:06:05;;;;;;;4.78;4.47;;;;;;;;;;5065150;28;20274;-52
2021/01/23 12:08:31;;;;;;;6.20;5.60;;;;;;;;;;5071870;28;20533;-53
2021/01/23 12:11:02;;;;;;;7.13;6.43;;;;;;;;;;5072516;28;20175;-52
2021/01/23 12:13:27;;;;;;;6.60;6.03;;;;;;;;;;5072773;28;20261;-52
2021/01/23 12:15:53;;;;;;;5.43;4.93;;;;;;;;;;5070058;28;21094;-53
2021/01/23 12:18:18;;;;;;;5.30;4.90;;;;;;;;;;5071938;28;20171;-51
2021/01/23 12:20:43;;;;;;;6.13;5.50;;;;;;;;;;5071783;28;20242;-53
2021/01/23 12:23:08;;;;;;;5.90;5.43;;;;;;;;;;5067578;28;20511;-51
2021/01/23 12:25:33;;;;;;;5.32;4.93;;;;;;;;;;5069857;28;20219;-52
2021/01/23 12:27:59;;;;;;;6.90;6.30;;;;;;;;;;5069882;28;20182;-52
2021/01/23 12:30:24;;;;;;;6.22;5.63;;;;;;;;;;5069997;28;20175;-52
2021/01/23 12:32:49;;;;;;;5.73;5.23;;;;;;;;;;5073331;28;20182;-51
2021/01/23 12:35:14;;;;;;;6.33;5.83;;;;;;;;;;5067544;28;20163;-51
2021/01/23 12:37:41;;;;;;;6.43;5.93;;;;;;;;;;5066065;28;20265;-52
2021/01/23 12:40:07;;;;;;;6.33;5.70;;;;;;;;;;5063367;28;20188;-51
2021/01/23 12:42:32;;;;;;;6.53;5.93;;;;;;;;;;5071679;28;20652;-52
2021/01/23 12:44:58;;;;;;;7.40;6.70;;;;;;;;;;5069965;28;20179;-54
2021/01/23 12:47:23;;;;;;;6.53;6.03;;;;;;;;;;5058553;28;20168;-52
2021/01/23 12:49:48;;;;;;;7.60;6.90;;;;;;;;;;5068403;28;20194;-52
2021/01/23 12:52:13;;;;;;;7.32;6.72;;;;;;;;;;5064226;28;20191;-52
2021/01/23 12:54:40;;;;;;;10.90;9.20;;;;;;;;;;5065113;28;20190;-52
2021/01/23 12:57:05;;;;;;;7.13;6.53;;;;;;;;;;5067661;28;20189;-53
2021/01/23 12:59:30;;;;;;;7.40;6.70;;;;;;;;;;5065630;28;20690;-52
2021/01/23 13:01:55;;;;;;;7.57;6.88;;;;;;;;;;5066906;28;20220;-52
2021/01/23 13:04:20;;;;;;;9.70;8.77;;;;;;;;;;5065888;28;20614;-53
2021/01/23 13:06:45;;;;;;;8.27;7.53;;;;;;;;;;5060202;28;20207;-52
2021/01/23 13:09:10;;;;;;;8.82;8.02;;;;;;;;;;5065078;28;20262;-52
2021/01/23 13:11:36;;;;;;;7.05;6.40;;;;;;;;;;5065802;28;20656;-52
2021/01/23 13:14:01;;;;;;;7.03;6.43;;;;;;;;;;5066186;28;20178;-54
2021/01/23 13:16:27;;;;;;;7.30;6.60;;;;;;;;;;5059679;28;20225;-52
2021/01/23 13:18:52;;;;;;;8.83;7.93;;;;;;;;;;5059895;28;20195;-59
2021/01/23 13:21:18;;;;;;;8.70;7.73;;;;;;;;;;5057536;28;20203;-58
2021/01/23 13:23:43;;;;;;;6.67;6.17;;;;;;;;;;5062158;28;20182;-57
2021/01/23 13:26:12;;;;;;;11.77;10.40;;;;;;;;;;5060127;28;20230;-58
2021/01/23 13:28:37;;;;;;;13.30;10.40;;;;;;;;;;5057680;28;20222;-58
2021/01/23 13:31:04;;;;;;;14.63;13.13;;;;;;;;;;5045225;28;20640;-57
2021/01/23 13:33:29;;;;;;;14.93;11.83;;;;;;;;;;5045995;28;20184;-58
2021/01/23 13:35:54;;;;;;;8.17;7.37;;;;;;;;;;5046298;28;20679;-58
2021/01/23 13:38:19;;;;;;;8.07;7.37;;;;;;;;;;5045558;28;20241;-58
2021/01/23 13:40:45;;;;;;;9.25;7.03;;;;;;;;;;5045688;28;20265;-57
2021/01/23 13:43:10;;;;;;;9.40;7.10;;;;;;;;;;5042755;28;20184;-50
2021/01/23 13:48:38;;;;;;;7.60;6.90;;;;;;;;;;5049034;28;20720;-65
2021/01/23 13:51:03;;;;;;;8.07;7.43;;;;;;;;;;5036700;28;20712;-66
2021/01/23 13:53:29;;;;;;;8.40;7.60;;;;;;;;;;5046441;28;20183;-66
2021/01/23 13:55:54;;;;;;;9.13;7.70;;;;;;;;;;5041348;28;20178;-65
2021/01/23 13:58:19;;;;;;;7.60;6.90;;;;;;;;;;5042819;28;21016;-65
2021/01/23 14:00:44;;;;;;;6.50;6.00;;;;;;;;;;5038390;28;20214;-65
2021/01/23 14:03:09;;;;;;;8.37;7.60;;;;;;;;;;5041452;28;20211;-65
2021/01/23 14:05:34;;;;;;;8.10;7.40;;;;;;;;;;5043247;28;20191;-63
2021/01/23 14:07:59;;;;;;;7.22;6.57;;;;;;;;;;5044385;28;20179;-65
2021/01/23 14:10:25;;;;;;;7.83;7.03;;;;;;;;;;5045659;28;20178;-63
2021/01/23 14:12:50;;;;;;;7.82;7.13;;;;;;;;;;5046457;28;20217;-64
2021/01/23 14:15:15;;;;;;;8.80;7.90;;;;;;;;;;5040335;28;20188;-64
2021/01/23 14:17:40;;;;;;;7.20;6.60;;;;;;;;;;5038921;28;20180;-63
2021/01/23 14:20:06;;;;;;;8.88;8.00;;;;;;;;;;5043700;28;20179;-66
2021/01/23 14:22:31;;;;;;;7.63;6.93;;;;;;;;;;5044182;28;20235;-62
2021/01/23 14:24:57;;;;;;;9.85;8.07;;;;;;;;;;5043047;28;20666;-62
2021/01/23 14:27:24;;;;;;;8.00;7.20;;;;;;;;;;5043699;28;20263;-63
2021/01/23 14:29:50;;;;;;;8.57;7.77;;;;;;;;;;5045641;28;20179;-63
2021/01/23 14:32:24;;;;;;;8.80;8.00;;;;;;;;;;5044631;28;20674;-66
2021/01/23 14:34:50;;;;;;;9.10;8.27;;;;;;;;;;5045283;28;20365;-65
2021/01/23 14:37:15;;;;;;;9.00;8.20;;;;;;;;;;5044722;28;20685;-65
2021/01/23 14:39:40;;;;;;;8.47;7.67;;;;;;;;;;5047187;28;20224;-64
2021/01/23 14:42:05;;;;;;;7.67;6.97;;;;;;;;;;5049610;28;20278;-63
2021/01/23 14:44:31;;;;;;;8.60;7.70;;;;;;;;;;5049044;28;20230;-65
2021/01/23 14:46:56;;;;;;;9.00;8.20;;;;;;;;;;5049308;28;20188;-63
2021/01/23 14:49:21;;;;;;;8.10;7.47;;;;;;;;;;5048332;28;20539;-62
2021/01/23 14:51:46;;;;;;;7.77;7.03;;;;;;;;;;5049032;28;20182;-63
2021/01/23 14:54:12;;;;;;;8.52;7.68;;;;;;;;;;5049302;28;20181;-62